createdAt,value
2018-12-15T00:00:07.339Z,29.47
2018-12-15T00:02:35.556Z,28.90
2018-12-15T00:05:04.022Z,27.47
2018-12-15T00:07:32.233Z,29.33
2018-12-15T00:10:00.454Z,28.70
2018-12-15T00:12:28.694Z,28.33
2018-12-15T00:14:57.079Z,28.00
2018-12-15T00:17:25.335Z,28.83
2018-12-15T00:19:53.744Z,27.73
2018-12-15T00:22:21.941Z,28.67
2018-12-15T00:24:50.153Z,27.20
2018-12-15T00:27:18.486Z,28.30
2018-12-15T00:29:46.715Z,27.23
2018-12-15T00:32:15.098Z,26.60
2018-12-15T00:34:43.321Z,26.33
2018-12-15T00:37:11.505Z,26.03
2018-12-15T00:39:39.733Z,25.10
2018-12-15T00:42:07.921Z,26.20
2018-12-15T00:44:36.149Z,25.83
2018-12-15T00:47:04.477Z,25.07
2018-12-15T00:49:32.779Z,25.43
2018-12-15T00:52:00.973Z,25.13
2018-12-15T00:54:29.201Z,25.97
2018-12-15T00:56:57.389Z,24.97
2018-12-15T00:59:25.634Z,24.10
2018-12-15T01:01:53.905Z,23.30
2018-12-15T01:04:22.165Z,23.77
2018-12-15T01:06:50.490Z,24.13
2018-12-15T01:09:18.694Z,23.40
2018-12-15T01:11:46.938Z,23.13
2018-12-15T01:14:15.123Z,22.53
2018-12-15T01:16:43.377Z,23.07
2018-12-15T01:19:11.553Z,22.73
2018-12-15T01:21:39.761Z,21.33
2018-12-15T01:24:07.945Z,22.77
2018-12-15T01:26:36.145Z,21.70
2018-12-15T01:29:08.288Z,22.00
2018-12-15T01:31:36.515Z,22.63
2018-12-15T01:34:04.717Z,21.77
2018-12-15T01:36:32.917Z,21.93
2018-12-15T01:39:02.188Z,21.90
2018-12-15T01:41:30.404Z,22.10
2018-12-15T01:43:58.633Z,20.73
2018-12-15T01:46:26.846Z,21.47
2018-12-15T01:48:55.239Z,20.10
2018-12-15T01:51:23.567Z,21.13
2018-12-15T01:53:51.779Z,21.57
2018-12-15T01:56:20.145Z,20.60
2018-12-15T01:58:48.348Z,20.97
2018-12-15T02:01:16.650Z,20.93
2018-12-15T02:03:44.941Z,18.57
2018-12-15T02:06:19.641Z,19.60
2018-12-15T02:08:47.900Z,19.47
2018-12-15T02:11:16.337Z,20.07
2018-12-15T02:13:44.624Z,18.33
2018-12-15T02:16:12.821Z,19.43
2018-12-15T02:18:41.069Z,18.63
2018-12-15T02:21:09.255Z,18.00
2018-12-15T02:23:37.482Z,17.83
2018-12-15T02:26:05.777Z,18.40
2018-12-15T02:28:33.997Z,17.80
2018-12-15T02:31:02.216Z,17.80
2018-12-15T02:33:30.418Z,16.30
2018-12-15T02:35:58.610Z,16.40
2018-12-15T02:38:26.862Z,15.60
2018-12-15T02:40:55.060Z,15.27
2018-12-15T02:43:23.272Z,14.90
2018-12-15T02:45:51.460Z,16.07
2018-12-15T02:48:19.673Z,15.03
2018-12-15T02:50:47.870Z,14.43
2018-12-15T02:53:16.081Z,13.70
2018-12-15T02:55:44.368Z,14.23
2018-12-15T02:58:12.624Z,13.60
2018-12-15T03:00:40.856Z,13.27
2018-12-15T03:03:09.080Z,13.27
2018-12-15T03:05:37.312Z,12.50
2018-12-15T03:08:05.642Z,12.27
2018-12-15T03:10:33.937Z,12.00
2018-12-15T03:13:02.157Z,12.43
2018-12-15T03:15:30.388Z,11.70
2018-12-15T03:17:58.614Z,12.37
2018-12-15T03:20:26.912Z,12.43
2018-12-15T03:22:55.149Z,11.53
2018-12-15T03:25:23.503Z,12.63
2018-12-15T03:27:51.745Z,11.27
2018-12-15T03:30:20.039Z,12.53
2018-12-15T03:32:48.247Z,11.53
2018-12-15T03:35:16.458Z,11.20
2018-12-15T03:37:44.692Z,11.63
2018-12-15T03:40:13.273Z,11.13
2018-12-15T03:42:41.486Z,11.50
2018-12-15T03:45:09.805Z,11.47
2018-12-15T03:47:38.023Z,12.07
2018-12-15T03:50:07.006Z,11.70
2018-12-15T03:52:35.220Z,11.10
2018-12-15T03:55:03.493Z,11.20
2018-12-15T03:57:31.703Z,12.07
2018-12-15T03:59:59.919Z,11.30
2018-12-15T04:02:28.117Z,11.53
2018-12-15T04:04:56.585Z,11.33
2018-12-15T04:07:24.793Z,11.40
2018-12-15T04:09:53.001Z,11.50
2018-12-15T04:12:21.209Z,10.57
2018-12-15T04:14:49.462Z,11.13
2018-12-15T04:17:17.665Z,11.13
2018-12-15T04:19:45.903Z,11.13
2018-12-15T04:22:19.276Z,10.53
2018-12-15T04:24:47.633Z,11.57
2018-12-15T04:27:16.095Z,11.20
2018-12-15T04:29:44.395Z,10.90
2018-12-15T04:32:12.594Z,10.80
2018-12-15T04:34:40.882Z,11.27
2018-12-15T04:37:09.100Z,11.37
2018-12-15T04:39:37.330Z,11.03
2018-12-15T04:42:05.782Z,10.90
2018-12-15T04:44:34.000Z,10.97
2018-12-15T04:47:02.469Z,11.07
2018-12-15T04:49:30.706Z,11.37
2018-12-15T04:51:58.901Z,10.87
2018-12-15T04:54:27.141Z,11.47
2018-12-15T04:56:55.346Z,11.17
2018-12-15T04:59:23.538Z,10.33
2018-12-15T05:01:51.742Z,10.63
2018-12-15T05:04:19.997Z,10.97
2018-12-15T05:06:48.303Z,11.57
2018-12-15T05:09:16.506Z,10.97
2018-12-15T05:11:44.708Z,10.67
2018-12-15T05:14:12.933Z,11.23
2018-12-15T05:16:41.230Z,10.67
2018-12-15T05:19:09.437Z,11.83
2018-12-15T05:21:37.669Z,11.40
2018-12-15T05:24:05.890Z,11.83
2018-12-15T05:26:34.121Z,11.60
2018-12-15T05:29:02.331Z,11.67
2018-12-15T05:31:30.609Z,11.33
2018-12-15T05:33:58.816Z,11.30
2018-12-15T05:36:27.029Z,10.57
2018-12-15T05:38:55.282Z,11.10
2018-12-15T05:41:23.481Z,11.70
2018-12-15T05:43:51.669Z,11.70
2018-12-15T05:46:19.985Z,10.63
2018-12-15T05:48:48.202Z,10.97
2018-12-15T05:51:16.404Z,11.17
2018-12-15T05:53:44.677Z,10.37
2018-12-15T05:56:12.970Z,10.57
2018-12-15T05:58:41.189Z,11.17
2018-12-15T06:01:09.430Z,10.77
2018-12-15T06:03:37.625Z,11.30
2018-12-15T06:06:05.861Z,11.30
2018-12-15T06:08:34.084Z,12.23
2018-12-15T06:11:02.280Z,12.33
2018-12-15T06:13:30.508Z,12.00
2018-12-15T06:15:58.692Z,11.70
2018-12-15T06:18:31.680Z,12.03
2018-12-15T06:20:57.337Z,11.30
2018-12-15T06:23:25.556Z,11.67
2018-12-15T06:25:53.789Z,11.97
2018-12-15T06:28:22.081Z,12.50
2018-12-15T06:30:50.273Z,11.90
2018-12-15T06:33:18.485Z,12.33
2018-12-15T06:35:46.668Z,12.80
2018-12-15T06:38:14.881Z,11.60
2018-12-15T06:40:43.085Z,13.70
2018-12-15T06:43:11.300Z,12.87
2018-12-15T06:45:39.512Z,13.70
2018-12-15T06:48:07.808Z,14.00
2018-12-15T06:50:36.008Z,13.23
2018-12-15T06:53:04.217Z,12.97
2018-12-15T06:55:32.409Z,13.23
2018-12-15T06:58:00.624Z,13.00
2018-12-15T07:00:31.165Z,15.97
2018-12-15T07:02:59.517Z,13.67
2018-12-15T07:05:27.853Z,13.17
2018-12-15T07:07:56.160Z,13.20
2018-12-15T07:10:24.353Z,14.07
2018-12-15T07:12:52.586Z,13.07
2018-12-15T07:15:20.826Z,14.03
2018-12-15T07:17:49.043Z,15.10
2018-12-15T07:20:17.337Z,13.20
2018-12-15T07:22:45.533Z,14.63
2018-12-15T07:25:13.825Z,14.53
2018-12-15T07:27:42.093Z,13.77
2018-12-15T07:30:10.457Z,14.13
2018-12-15T07:32:38.648Z,13.63
2018-12-15T07:35:07.014Z,14.63
2018-12-15T07:37:35.217Z,13.77
2018-12-15T07:40:04.125Z,13.40
2018-12-15T07:42:32.357Z,13.47
2018-12-15T07:45:00.581Z,13.53
2018-12-15T07:47:28.796Z,14.07
2018-12-15T07:49:57.055Z,14.13
2018-12-15T07:52:25.268Z,13.40
2018-12-15T07:54:53.577Z,14.17
2018-12-15T07:57:21.773Z,14.57
2018-12-15T07:59:50.797Z,14.47
2018-12-15T08:02:19.159Z,13.70
2018-12-15T08:04:47.365Z,13.60
2018-12-15T08:07:15.693Z,12.67
2018-12-15T08:09:43.993Z,13.27
2018-12-15T08:12:17.550Z,13.77
2018-12-15T08:14:45.863Z,13.50
2018-12-15T08:17:14.077Z,12.90
2018-12-15T08:19:42.389Z,14.40
2018-12-15T08:22:10.638Z,13.37
2018-12-15T08:24:38.916Z,13.27
2018-12-15T08:27:07.178Z,13.53
2018-12-15T08:29:35.465Z,13.53
2018-12-15T08:32:03.765Z,14.50
2018-12-15T08:34:32.177Z,13.70
2018-12-15T08:37:00.640Z,14.10
2018-12-15T08:39:29.031Z,14.20
2018-12-15T08:41:57.349Z,14.87
2018-12-15T08:44:25.724Z,16.40
2018-12-15T08:46:53.961Z,15.73
2018-12-15T08:49:22.148Z,14.13
2018-12-15T08:51:50.373Z,13.97
2018-12-15T08:54:18.579Z,14.07
2018-12-15T08:56:46.883Z,13.63
2018-12-15T08:59:15.089Z,15.27
2018-12-15T09:01:43.318Z,14.23
2018-12-15T09:04:11.581Z,13.93
2018-12-15T09:06:39.832Z,13.87
2018-12-15T09:09:08.097Z,14.03
2018-12-15T09:11:36.342Z,15.67
2018-12-15T09:14:04.620Z,14.83
2018-12-15T09:16:32.808Z,15.13
2018-12-15T09:19:01.109Z,15.20
2018-12-15T09:21:29.634Z,14.20
2018-12-15T09:23:58.036Z,15.13
2018-12-15T09:26:26.312Z,15.53
2018-12-15T09:28:54.529Z,14.70
2018-12-15T09:31:22.742Z,16.47
2018-12-15T09:33:50.976Z,15.17
2018-12-15T09:36:19.184Z,14.37
2018-12-15T09:38:47.389Z,15.27
2018-12-15T09:41:15.597Z,15.53
2018-12-15T09:43:43.900Z,15.53
2018-12-15T09:46:12.281Z,15.47
2018-12-15T09:48:40.573Z,15.97
2018-12-15T09:51:08.813Z,17.27
2018-12-15T09:53:37.114Z,16.57
2018-12-15T09:56:05.477Z,16.43
2018-12-15T09:58:33.690Z,16.83
2018-12-15T10:01:01.887Z,15.53
2018-12-15T10:03:30.164Z,15.23
2018-12-15T10:05:58.354Z,15.40
2018-12-15T10:08:26.582Z,15.47
2018-12-15T10:10:54.821Z,18.73
2018-12-15T10:13:23.033Z,15.77
2018-12-15T10:15:51.236Z,15.20
2018-12-15T10:18:19.507Z,15.50
2018-12-15T10:20:47.698Z,15.37
2018-12-15T10:23:15.893Z,16.23
2018-12-15T10:25:44.092Z,15.73
2018-12-15T10:28:12.296Z,15.50
2018-12-15T10:30:46.006Z,16.43
2018-12-15T10:33:14.197Z,16.10
2018-12-15T10:35:42.409Z,17.10
2018-12-15T10:38:10.721Z,16.40
2018-12-15T10:40:38.921Z,16.33
2018-12-15T10:43:07.173Z,16.03
2018-12-15T10:45:35.373Z,16.03
2018-12-15T10:48:03.648Z,16.93
2018-12-15T10:50:31.957Z,18.20
2018-12-15T10:53:00.186Z,17.27
2018-12-15T10:55:28.417Z,16.43
2018-12-15T10:57:56.617Z,17.63
2018-12-15T11:00:29.152Z,16.33
2018-12-15T11:02:57.457Z,16.30
2018-12-15T11:05:25.777Z,17.47
2018-12-15T11:07:54.017Z,17.37
2018-12-15T11:10:22.306Z,16.07
2018-12-15T11:12:50.505Z,16.50
2018-12-15T11:15:18.722Z,16.50
2018-12-15T11:17:46.909Z,16.50
2018-12-15T11:20:15.180Z,16.50
2018-12-15T11:22:43.373Z,15.93
2018-12-15T11:25:11.701Z,17.00
2018-12-15T11:27:39.896Z,15.93
2018-12-15T11:30:08.313Z,17.33
2018-12-15T11:32:36.612Z,16.27
2018-12-15T11:35:05.210Z,16.43
2018-12-15T11:37:33.420Z,17.73
2018-12-15T11:40:01.690Z,17.63
2018-12-15T11:42:29.916Z,18.30
2018-12-15T11:44:58.240Z,17.23
2018-12-15T11:47:26.458Z,17.97
2018-12-15T11:50:00.006Z,18.97
2018-12-15T11:52:28.269Z,18.17
2018-12-15T11:54:56.456Z,18.00
2018-12-15T11:57:24.685Z,17.57
2018-12-15T11:59:52.929Z,16.70
2018-12-15T12:02:21.223Z,17.03
2018-12-15T12:04:49.437Z,17.40
2018-12-15T12:07:17.664Z,17.10
2018-12-15T12:09:45.873Z,16.77
2018-12-15T12:12:14.165Z,17.23
2018-12-15T12:14:42.477Z,18.47
2018-12-15T12:17:10.683Z,18.07
2018-12-15T12:19:38.902Z,19.90
2018-12-15T12:22:07.178Z,19.73
2018-12-15T12:24:35.392Z,17.43
2018-12-15T12:27:03.748Z,18.27
2018-12-15T12:29:31.941Z,19.70
2018-12-15T12:32:00.198Z,18.13
2018-12-15T12:34:28.407Z,17.97
2018-12-15T12:36:56.653Z,18.50
2018-12-15T12:39:24.862Z,18.40
2018-12-15T12:41:53.084Z,18.97
2018-12-15T12:44:21.330Z,19.20
2018-12-15T12:46:49.562Z,19.07
2018-12-15T12:49:17.763Z,18.93
2018-12-15T12:51:45.979Z,18.60
2018-12-15T12:54:14.240Z,18.47
2018-12-15T12:56:42.473Z,18.93
2018-12-15T12:59:10.692Z,18.93
2018-12-15T13:01:38.968Z,18.10
2018-12-15T13:04:07.176Z,21.33
2018-12-15T13:06:35.376Z,17.90
2018-12-15T13:09:05.937Z,18.70
2018-12-15T13:11:34.153Z,18.27
2018-12-15T13:14:02.513Z,18.73
2018-12-15T13:16:30.725Z,19.07
2018-12-15T13:18:58.936Z,18.43
2018-12-15T13:21:27.180Z,18.70
2018-12-15T13:23:55.445Z,17.87
2018-12-15T13:26:23.734Z,18.87
2018-12-15T13:28:51.961Z,17.93
2018-12-15T13:31:20.299Z,18.03
2018-12-15T13:33:48.613Z,17.00
2018-12-15T13:36:18.633Z,17.33
2018-12-15T13:38:47.025Z,18.73
2018-12-15T13:41:15.233Z,18.10
2018-12-15T13:43:43.508Z,17.93
2018-12-15T13:46:11.858Z,17.53
2018-12-15T13:48:40.101Z,17.13
2018-12-15T13:51:08.395Z,18.37
2018-12-15T13:53:36.670Z,17.47
2018-12-15T13:56:05.019Z,17.70
2018-12-15T13:58:33.252Z,17.47
2018-12-15T14:01:01.439Z,16.93
2018-12-15T14:03:29.671Z,18.73
2018-12-15T14:05:57.873Z,17.50
2018-12-15T14:08:26.149Z,18.53
2018-12-15T14:10:54.349Z,18.23
2018-12-15T14:13:22.603Z,19.80
2018-12-15T14:15:50.944Z,20.50
2018-12-15T14:18:19.153Z,19.40
2018-12-15T14:20:47.474Z,18.63
2018-12-15T14:23:15.758Z,19.13
2018-12-15T14:25:43.978Z,18.57
2018-12-15T14:28:12.160Z,18.30
2018-12-15T14:30:40.373Z,17.17
2018-12-15T14:33:08.575Z,17.40
2018-12-15T14:35:36.824Z,19.60
2018-12-15T14:38:05.049Z,20.33
2018-12-15T14:40:33.280Z,21.33
2018-12-15T14:43:01.489Z,18.33
2018-12-15T14:45:29.813Z,18.83
2018-12-15T14:47:58.012Z,20.17
2018-12-15T14:50:26.261Z,17.70
2018-12-15T14:52:54.469Z,20.17
2018-12-15T14:55:22.744Z,18.93
2018-12-15T14:57:50.958Z,18.97
2018-12-15T15:00:19.168Z,21.10
2018-12-15T15:02:47.555Z,18.30
2018-12-15T15:05:15.871Z,18.97
2018-12-15T15:07:44.093Z,19.27
2018-12-15T15:10:12.370Z,19.40
2018-12-15T15:12:40.613Z,18.97
2018-12-15T15:15:08.965Z,25.90
2018-12-15T15:17:38.449Z,34.57
2018-12-15T15:20:08.953Z,28.43
2018-12-15T15:22:37.173Z,28.47
2018-12-15T15:25:05.777Z,21.13
2018-12-15T15:27:33.986Z,20.10
2018-12-15T15:30:02.328Z,22.40
2018-12-15T15:32:30.612Z,20.07
2018-12-15T15:34:59.710Z,20.33
2018-12-15T15:37:27.980Z,19.20
2018-12-15T15:39:56.197Z,19.03
2018-12-15T15:42:24.561Z,19.40
2018-12-15T15:44:52.826Z,19.97
2018-12-15T15:47:21.048Z,22.03
2018-12-15T15:49:49.228Z,21.40
2018-12-15T15:52:17.487Z,21.87
2018-12-15T15:54:45.914Z,22.33
2018-12-15T15:57:14.106Z,21.43
2018-12-15T15:59:42.361Z,20.07
2018-12-15T16:02:10.710Z,23.67
2018-12-15T16:04:38.913Z,22.27
2018-12-15T16:07:07.265Z,22.73
2018-12-15T16:09:35.533Z,22.67
2018-12-15T16:12:05.195Z,22.23
2018-12-15T16:14:33.493Z,25.30
2018-12-15T16:17:01.718Z,25.13
2018-12-15T16:19:29.932Z,24.77
2018-12-15T16:21:58.238Z,24.67
2018-12-15T16:24:26.447Z,30.17
2018-12-15T16:26:54.987Z,35.87
2018-12-15T16:29:23.268Z,26.33
2018-12-15T16:31:52.383Z,24.13
2018-12-15T16:34:20.577Z,23.83
2018-12-15T16:36:48.932Z,24.10
2018-12-15T16:39:17.219Z,23.77
2018-12-15T16:41:45.618Z,22.33
2018-12-15T16:44:13.817Z,23.13
2018-12-15T16:46:42.109Z,24.90
2018-12-15T16:49:10.421Z,24.23
2018-12-15T16:51:38.648Z,25.37
2018-12-15T16:54:06.885Z,24.47
2018-12-15T16:56:35.114Z,24.40
2018-12-15T16:59:03.452Z,24.27
2018-12-15T17:01:31.855Z,23.10
2018-12-15T17:04:00.305Z,24.73
2018-12-15T17:06:28.550Z,24.97
2018-12-15T17:08:56.754Z,25.80
2018-12-15T17:11:24.946Z,24.60
2018-12-15T17:13:53.163Z,23.57
2018-12-15T17:16:21.366Z,25.27
2018-12-15T17:18:49.589Z,25.50
2018-12-15T17:21:17.906Z,25.70
2018-12-15T17:23:46.250Z,24.90
2018-12-15T17:26:14.568Z,27.33
2018-12-15T17:28:42.861Z,25.87
2018-12-15T17:31:11.134Z,25.33
2018-12-15T17:33:39.422Z,24.50
2018-12-15T17:36:07.708Z,25.97
2018-12-15T17:38:35.917Z,25.87
2018-12-15T17:41:04.233Z,26.53
2018-12-15T17:43:32.444Z,25.83
2018-12-15T17:46:00.653Z,24.77
2018-12-15T17:48:28.867Z,25.13
2018-12-15T17:51:03.050Z,26.47
2018-12-15T17:53:27.582Z,25.77
2018-12-15T17:55:55.796Z,22.90
2018-12-15T17:58:24.037Z,27.17
2018-12-15T18:00:52.351Z,26.63
2018-12-15T18:03:20.628Z,27.07
2018-12-15T18:05:48.841Z,28.57
2018-12-15T18:08:17.153Z,28.00
2018-12-15T18:10:45.437Z,28.03
2018-12-15T18:13:13.657Z,27.67
2018-12-15T18:15:41.871Z,26.83
2018-12-15T18:18:10.110Z,26.50
2018-12-15T18:20:38.385Z,26.23
2018-12-15T18:23:06.749Z,26.10
2018-12-15T18:25:35.034Z,28.13
2018-12-15T18:28:03.377Z,28.37
2018-12-15T18:30:31.642Z,27.13
2018-12-15T18:33:00.052Z,27.90
2018-12-15T18:35:28.267Z,27.63
2018-12-15T18:37:56.593Z,25.83
2018-12-15T18:40:24.899Z,26.83
2018-12-15T18:42:53.209Z,26.83
2018-12-15T18:45:21.488Z,26.13
2018-12-15T18:47:49.763Z,27.30
2018-12-15T18:50:18.026Z,26.73
2018-12-15T18:52:46.257Z,26.70
2018-12-15T18:55:14.586Z,29.70
2018-12-15T18:57:42.909Z,27.93
2018-12-15T19:00:12.062Z,28.20
2018-12-15T19:02:40.292Z,26.47
2018-12-15T19:05:08.733Z,25.40
2018-12-15T19:07:37.032Z,28.43
2018-12-15T19:10:06.206Z,27.63
2018-12-15T19:12:34.737Z,30.07
2018-12-15T19:15:03.043Z,29.63
2018-12-15T19:17:31.272Z,28.33
2018-12-15T19:20:00.518Z,29.10
2018-12-15T19:22:28.859Z,28.43
2018-12-15T19:24:57.212Z,26.93
2018-12-15T19:27:25.635Z,28.40
2018-12-15T19:29:53.857Z,29.30
2018-12-15T19:32:22.405Z,29.20
2018-12-15T19:34:52.489Z,29.23
2018-12-15T19:37:20.977Z,27.40
2018-12-15T19:39:49.360Z,28.67
2018-12-15T19:42:17.571Z,28.80
2018-12-15T19:44:45.776Z,28.27
2018-12-15T19:47:14.001Z,29.70
2018-12-15T19:49:42.216Z,29.83
2018-12-15T19:52:10.533Z,28.47
2018-12-15T19:54:38.758Z,29.27
2018-12-15T19:57:07.014Z,29.73
2018-12-15T19:59:35.281Z,27.90
2018-12-15T20:02:03.636Z,29.53
2018-12-15T20:04:31.885Z,29.20
2018-12-15T20:07:00.142Z,29.07
2018-12-15T20:09:28.682Z,28.33
2018-12-15T20:11:56.944Z,29.87
2018-12-15T20:14:25.166Z,31.13
2018-12-15T20:16:53.407Z,30.73
2018-12-15T20:19:21.609Z,28.37
2018-12-15T20:21:49.863Z,29.57
2018-12-15T20:24:18.159Z,30.77
2018-12-15T20:26:46.797Z,29.07
2018-12-15T20:29:15.306Z,30.93
2018-12-15T20:31:43.493Z,29.13
2018-12-15T20:34:11.805Z,29.97
2018-12-15T20:36:39.997Z,29.17
2018-12-15T20:39:08.301Z,29.20
2018-12-15T20:41:36.520Z,28.00
2018-12-15T20:44:04.885Z,28.77
2018-12-15T20:46:33.196Z,30.77
2018-12-15T20:49:01.499Z,30.80
2018-12-15T20:51:29.775Z,29.23
2018-12-15T20:53:58.226Z,29.67
2018-12-15T20:56:27.015Z,29.50
2018-12-15T20:58:55.248Z,29.87
2018-12-15T21:01:23.574Z,30.30
2018-12-15T21:03:51.881Z,30.83
2018-12-15T21:06:20.349Z,29.60
2018-12-15T21:08:48.596Z,31.17
2018-12-15T21:11:16.903Z,29.77
2018-12-15T21:13:45.265Z,30.60
2018-12-15T21:16:13.634Z,30.30
2018-12-15T21:18:41.946Z,30.70
2018-12-15T21:21:10.259Z,31.10
2018-12-15T21:23:38.578Z,29.87
2018-12-15T21:26:06.839Z,31.20
2018-12-15T21:28:35.183Z,31.10
2018-12-15T21:31:03.549Z,31.20
2018-12-15T21:33:31.778Z,30.73
2018-12-15T21:36:00.036Z,30.70
2018-12-15T21:38:28.345Z,30.13
2018-12-15T21:40:56.656Z,29.27
2018-12-15T21:43:25.101Z,30.67
2018-12-15T21:45:53.313Z,31.90
2018-12-15T21:48:21.512Z,29.93
2018-12-15T21:50:49.710Z,29.37
2018-12-15T21:53:18.025Z,28.27
2018-12-15T21:55:46.360Z,30.00
2018-12-15T21:58:14.654Z,30.67
2018-12-15T22:00:42.865Z,29.67
2018-12-15T22:03:11.085Z,30.50
2018-12-15T22:05:39.394Z,29.43
2018-12-15T22:08:07.609Z,29.50
2018-12-15T22:10:36.206Z,30.83
2018-12-15T22:13:05.012Z,30.33
2018-12-15T22:15:33.228Z,31.27
2018-12-15T22:18:01.432Z,29.67
2018-12-15T22:20:29.882Z,31.77
2018-12-15T22:22:58.085Z,31.30
2018-12-15T22:25:26.301Z,29.47
2018-12-15T22:27:54.482Z,29.50
2018-12-15T22:30:22.689Z,30.37
2018-12-15T22:32:50.902Z,30.73
2018-12-15T22:35:19.132Z,32.87
2018-12-15T22:37:47.401Z,31.37
2018-12-15T22:40:15.613Z,31.43
2018-12-15T22:42:43.791Z,31.37
2018-12-15T22:45:12.108Z,30.77
2018-12-15T22:47:40.449Z,30.60
2018-12-15T22:50:08.963Z,31.70
2018-12-15T22:52:37.212Z,32.00
2018-12-15T22:55:05.761Z,31.63
2018-12-15T22:57:33.984Z,31.23
2018-12-15T23:00:02.257Z,30.23
2018-12-15T23:02:30.539Z,30.10
2018-12-15T23:04:58.822Z,31.70
2018-12-15T23:07:27.121Z,31.77
2018-12-15T23:09:55.416Z,32.03
2018-12-15T23:12:23.632Z,30.57
2018-12-15T23:14:51.928Z,31.87
2018-12-15T23:17:20.212Z,31.93
2018-12-15T23:19:48.420Z,31.07
2018-12-15T23:22:16.616Z,33.63
2018-12-15T23:24:44.869Z,33.00
2018-12-15T23:27:13.275Z,33.33
2018-12-15T23:29:41.486Z,32.77
2018-12-15T23:32:09.708Z,31.17
2018-12-15T23:34:37.913Z,33.23
2018-12-15T23:37:06.216Z,30.73
2018-12-15T23:39:34.429Z,31.90
2018-12-15T23:42:02.749Z,31.70
2018-12-15T23:44:31.035Z,31.50
2018-12-15T23:46:59.254Z,32.30
2018-12-15T23:49:27.542Z,33.30
2018-12-15T23:51:55.760Z,31.83
2018-12-15T23:54:23.953Z,32.30
2018-12-15T23:56:52.241Z,32.80
2018-12-15T23:59:20.460Z,31.87
